createdAt,value
2019-06-26T00:00:42.815Z,33.96
2019-06-26T00:03:13.066Z,33.86
2019-06-26T00:05:43.268Z,33.83
2019-06-26T00:08:13.536Z,33.82
2019-06-26T00:10:44.584Z,33.80
2019-06-26T00:13:25.700Z,33.81
2019-06-26T00:15:47.134Z,33.73
2019-06-26T00:18:17.865Z,33.69
2019-06-26T00:20:48.599Z,33.64
2019-06-26T00:23:20.155Z,33.64
2019-06-26T00:25:51.332Z,33.65
2019-06-26T00:28:21.528Z,33.60
2019-06-26T00:30:52.280Z,33.48
2019-06-26T00:33:23.115Z,33.50
2019-06-26T00:35:53.388Z,33.44
2019-06-26T00:38:23.614Z,33.44
2019-06-26T00:40:53.982Z,33.41
2019-06-26T00:43:41.285Z,33.39
2019-06-26T00:45:58.114Z,33.33
2019-06-26T00:48:28.309Z,33.28
2019-06-26T00:51:00.918Z,33.22
2019-06-26T00:53:31.554Z,33.15
2019-06-26T00:56:01.875Z,33.16
2019-06-26T00:58:32.655Z,33.19
2019-06-26T01:01:03.057Z,33.10
2019-06-26T01:03:35.645Z,33.09
2019-06-26T01:06:08.505Z,33.05
2019-06-26T01:08:38.721Z,33.01
2019-06-26T01:11:10.036Z,32.95
2019-06-26T01:13:40.218Z,32.95
2019-06-26T01:16:11.135Z,32.97
2019-06-26T01:18:41.431Z,32.98
2019-06-26T01:21:11.645Z,32.96
2019-06-26T01:26:45.231Z,32.95
2019-06-26T06:33:06.682Z,32.00
2019-06-26T06:35:37.203Z,32.10
2019-06-26T06:38:08.903Z,32.10
2019-06-26T06:40:39.150Z,32.17
2019-06-26T06:46:13.284Z,32.26
2019-06-26T06:48:43.492Z,32.27
2019-06-26T06:51:15.300Z,32.22
2019-06-26T06:53:45.534Z,32.31
2019-06-26T06:56:16.355Z,32.33
2019-06-26T06:58:46.559Z,32.45
2019-06-26T07:01:17.256Z,32.48
2019-06-26T07:03:47.449Z,32.50
2019-06-26T07:06:17.703Z,32.57
2019-06-26T07:08:47.940Z,32.60
2019-06-26T07:11:18.596Z,32.74
2019-06-26T07:13:48.900Z,32.73
2019-06-26T07:16:19.169Z,32.71
2019-06-26T07:18:49.390Z,32.63
2019-06-26T07:21:21.165Z,32.63
2019-06-26T07:23:51.988Z,32.72
2019-06-26T07:26:22.426Z,32.81
2019-06-26T07:28:52.632Z,32.80
2019-06-26T07:31:23.351Z,32.89
2019-06-26T07:33:55.795Z,32.89
2019-06-26T07:36:28.769Z,32.96
2019-06-26T07:38:58.985Z,32.81
2019-06-26T07:41:30.495Z,32.77
2019-06-26T07:44:01.163Z,32.86
2019-06-26T07:46:31.491Z,33.02
2019-06-26T07:49:01.722Z,33.14
2019-06-26T07:51:32.418Z,33.00
2019-06-26T07:54:03.130Z,33.00
2019-06-26T07:56:33.352Z,33.11
2019-06-26T07:59:03.556Z,33.10
2019-06-26T08:01:33.778Z,33.12
2019-06-26T08:04:04.479Z,33.17
2019-06-26T08:06:34.681Z,33.34
2019-06-26T08:09:06.199Z,32.88
2019-06-26T08:11:36.381Z,33.15
2019-06-26T08:14:06.579Z,33.30
2019-06-26T08:16:36.892Z,33.29
2019-06-26T08:19:07.671Z,33.30
2019-06-26T08:21:37.878Z,33.45
2019-06-26T08:24:08.254Z,33.54
2019-06-26T08:26:40.769Z,33.63
2019-06-26T08:29:10.947Z,33.69
2019-06-26T08:31:41.250Z,33.77
2019-06-26T08:34:11.906Z,33.80
2019-06-26T08:36:42.128Z,33.83
2019-06-26T08:39:12.491Z,33.93
2019-06-26T08:41:43.376Z,34.01
2019-06-26T08:44:14.033Z,34.00
2019-06-26T08:46:44.360Z,34.16
2019-06-26T08:49:25.115Z,34.10
2019-06-26T08:51:47.633Z,34.22
2019-06-26T08:54:18.470Z,34.16
2019-06-26T08:56:49.279Z,34.25
2019-06-26T08:59:19.430Z,34.36
2019-06-26T09:01:49.637Z,34.47
2019-06-26T09:04:19.885Z,34.55
2019-06-26T09:06:50.620Z,34.42
2019-06-26T09:09:20.816Z,34.58
2019-06-26T09:11:51.586Z,34.67
2019-06-26T09:14:21.803Z,34.72
2019-06-26T09:16:52.015Z,34.62
2019-06-26T09:19:22.077Z,34.76
2019-06-26T09:21:52.824Z,34.75
2019-06-26T09:24:22.980Z,34.92
2019-06-26T09:26:54.616Z,35.02
2019-06-26T09:29:24.782Z,35.02
2019-06-26T09:31:55.010Z,35.10
2019-06-26T09:34:25.771Z,35.23
2019-06-26T09:36:56.050Z,35.27
2019-06-26T09:39:26.273Z,35.30
2019-06-26T09:41:57.709Z,35.31
2019-06-26T09:44:28.485Z,35.45
2019-06-26T09:46:58.783Z,35.57
2019-06-26T09:49:29.030Z,35.58
2019-06-26T09:52:00.067Z,35.67
2019-06-26T09:54:31.771Z,35.60
2019-06-26T09:57:02.680Z,35.70
2019-06-26T09:59:32.885Z,35.80
2019-06-26T10:02:03.345Z,35.96
2019-06-26T10:04:34.073Z,35.98
2019-06-26T10:07:04.412Z,36.13
2019-06-26T10:09:34.643Z,36.07
2019-06-26T10:12:06.091Z,36.26
2019-06-26T10:14:47.512Z,36.48
2019-06-26T10:17:08.734Z,36.56
2019-06-26T10:19:38.924Z,36.57
2019-06-26T10:22:09.163Z,36.84
2019-06-26T10:24:39.834Z,36.68
2019-06-26T10:27:11.407Z,36.78
2019-06-26T10:29:41.609Z,36.94
2019-06-26T10:32:11.930Z,37.02
2019-06-26T10:34:42.575Z,37.25
2019-06-26T10:37:12.925Z,37.14
2019-06-26T10:39:43.165Z,37.28
2019-06-26T10:42:13.362Z,37.51
2019-06-26T10:44:43.694Z,37.47
2019-06-26T10:47:14.524Z,37.80
2019-06-26T10:49:44.724Z,37.93
2019-06-26T10:52:16.276Z,38.01
2019-06-26T10:54:46.562Z,38.00
2019-06-26T10:57:17.144Z,38.26
2019-06-26T10:59:47.859Z,38.30
2019-06-26T11:02:18.100Z,38.17
2019-06-26T11:04:48.311Z,38.34
2019-06-26T11:07:18.617Z,38.49
2019-06-26T11:09:49.269Z,38.60
2019-06-26T11:12:19.711Z,38.55
2019-06-26T11:14:49.919Z,38.66
2019-06-26T11:17:20.142Z,38.69
2019-06-26T11:19:50.895Z,38.66
2019-06-26T11:22:21.102Z,38.77
2019-06-26T11:24:51.326Z,38.97
2019-06-26T11:27:21.589Z,39.09
2019-06-26T11:29:51.968Z,39.20
2019-06-26T11:32:22.638Z,39.29
2019-06-26T11:34:53.353Z,39.36
2019-06-26T11:37:23.552Z,39.40
2019-06-26T11:39:53.935Z,39.41
2019-06-26T11:42:25.890Z,39.54
2019-06-26T11:44:56.211Z,39.59
2019-06-26T11:47:28.144Z,39.35
2019-06-26T11:50:00.446Z,39.73
2019-06-26T11:52:32.900Z,39.88
2019-06-26T11:55:03.995Z,40.06
2019-06-26T11:57:34.717Z,40.19
2019-06-26T12:00:08.075Z,40.39
2019-06-26T12:02:39.894Z,40.44
2019-06-26T12:05:12.936Z,40.41
2019-06-26T12:07:43.236Z,40.52
2019-06-26T12:10:14.532Z,40.52
2019-06-26T12:12:45.142Z,40.42
2019-06-26T12:15:15.473Z,40.41
2019-06-26T12:17:45.689Z,40.50
2019-06-26T12:20:19.812Z,40.62
2019-06-26T12:22:50.148Z,40.65
2019-06-26T12:25:20.729Z,40.97
2019-06-26T12:27:50.949Z,41.05
2019-06-26T12:30:21.627Z,41.20
2019-06-26T12:33:02.815Z,41.40
2019-06-26T12:35:24.339Z,41.46
2019-06-26T12:37:54.710Z,41.34
2019-06-26T12:40:24.925Z,41.55
2019-06-26T12:42:55.874Z,41.67
2019-06-26T12:45:26.645Z,41.92
2019-06-26T12:47:57.129Z,41.93
2019-06-26T12:50:35.353Z,42.14
2019-06-26T12:52:59.652Z,41.85
2019-06-26T12:55:32.884Z,41.97
2019-06-26T12:58:12.483Z,41.86
2019-06-26T13:00:34.214Z,41.92
2019-06-26T13:03:05.154Z,41.91
2019-06-26T13:05:35.742Z,42.17
2019-06-26T13:08:05.986Z,42.39
2019-06-26T13:10:48.885Z,42.44
2019-06-26T13:13:08.129Z,42.55
2019-06-26T13:15:38.870Z,42.66
2019-06-26T13:18:09.179Z,42.71
2019-06-26T13:20:52.088Z,42.62
2019-06-26T13:23:14.909Z,42.76
2019-06-26T13:25:45.402Z,42.61
2019-06-26T13:28:15.705Z,42.41
2019-06-26T13:30:45.932Z,42.54
2019-06-26T13:33:16.181Z,42.76
2019-06-26T13:35:46.820Z,42.93
2019-06-26T13:38:18.547Z,42.91
2019-06-26T13:40:48.926Z,42.91
2019-06-26T13:43:19.344Z,43.09
2019-06-26T13:45:50.081Z,42.95
2019-06-26T13:48:20.324Z,43.08
2019-06-26T13:50:50.731Z,43.10
2019-06-26T13:53:23.101Z,43.35
2019-06-26T13:55:53.301Z,43.40
2019-06-26T13:58:24.035Z,43.50
2019-06-26T14:00:54.269Z,43.46
2019-06-26T14:03:24.472Z,43.47
2019-06-26T14:05:54.795Z,43.35
2019-06-26T14:08:25.594Z,43.51
2019-06-26T14:10:56.259Z,43.67
2019-06-26T14:13:26.503Z,43.67
2019-06-26T14:15:56.717Z,43.70
2019-06-26T14:18:30.316Z,43.77
2019-06-26T14:20:59.346Z,43.76
2019-06-26T14:23:29.653Z,43.61
2019-06-26T14:25:59.946Z,43.57
2019-06-26T14:28:30.185Z,43.58
2019-06-26T14:31:00.370Z,43.41
2019-06-26T14:33:30.617Z,43.51
2019-06-26T14:36:02.439Z,43.37
2019-06-26T14:38:32.738Z,43.42
2019-06-26T14:41:02.964Z,43.46
2019-06-26T14:43:33.249Z,43.44
2019-06-26T14:46:03.495Z,43.54
2019-06-26T14:48:34.164Z,43.54
2019-06-26T14:51:04.393Z,43.58
2019-06-26T14:53:35.155Z,43.52
2019-06-26T14:56:05.354Z,43.49
2019-06-26T14:58:36.456Z,43.59
2019-06-26T15:01:07.986Z,43.34
2019-06-26T15:03:38.441Z,43.46
2019-06-26T15:06:16.326Z,43.46
2019-06-26T15:08:40.644Z,43.40
2019-06-26T15:11:11.497Z,43.64
2019-06-26T15:13:42.615Z,43.92
2019-06-26T15:16:12.937Z,44.23
2019-06-26T15:18:43.243Z,44.56
2019-06-26T15:21:14.040Z,44.86
2019-06-26T15:23:44.306Z,45.12
2019-06-26T15:26:14.552Z,45.49
2019-06-26T15:28:45.387Z,45.78
2019-06-26T15:31:15.591Z,45.86
2019-06-26T15:33:46.431Z,45.60
2019-06-26T15:36:16.692Z,45.03
2019-06-26T15:38:47.003Z,44.44
2019-06-26T15:41:17.453Z,43.87
2019-06-26T15:43:49.169Z,43.23
2019-06-26T15:46:19.363Z,42.81
2019-06-26T15:48:50.803Z,42.44
2019-06-26T15:51:21.112Z,42.01
2019-06-26T15:53:53.110Z,41.48
2019-06-26T15:56:23.300Z,41.11
2019-06-26T15:58:53.542Z,40.90
2019-06-26T16:01:23.811Z,40.71
2019-06-26T16:03:54.486Z,40.29
2019-06-26T16:06:24.754Z,40.00
2019-06-26T16:08:55.080Z,39.93
2019-06-26T16:11:25.277Z,39.68
2019-06-26T16:13:55.515Z,39.34
2019-06-26T16:16:27.050Z,39.19
2019-06-26T16:19:03.955Z,39.02
2019-06-26T16:21:34.281Z,38.94
2019-06-26T16:24:04.486Z,38.82
2019-06-26T16:26:34.696Z,38.68
2019-06-26T16:29:05.080Z,38.55
2019-06-26T16:31:35.726Z,38.50
2019-06-26T16:34:05.952Z,38.37
2019-06-26T16:36:36.194Z,38.18
2019-06-26T16:39:07.672Z,38.21
2019-06-26T16:41:38.051Z,38.12
2019-06-26T16:44:08.771Z,37.91
2019-06-26T16:46:39.072Z,37.85
2019-06-26T16:49:09.284Z,37.90
2019-06-26T16:51:39.519Z,37.89
2019-06-26T16:54:09.904Z,37.73
2019-06-26T16:56:40.657Z,37.66
2019-06-26T16:59:11.011Z,37.51
2019-06-26T17:01:41.297Z,37.41
2019-06-26T17:04:12.033Z,37.35
2019-06-26T17:06:42.896Z,37.30
2019-06-26T17:09:13.242Z,37.29
2019-06-26T17:11:44.977Z,37.20
2019-06-26T17:14:16.081Z,37.16
2019-06-26T17:16:46.740Z,37.16
2019-06-26T17:19:16.995Z,37.16
2019-06-26T17:21:47.187Z,37.15
2019-06-26T17:24:17.427Z,37.03
2019-06-26T17:26:48.077Z,37.02
2019-06-26T17:29:19.658Z,36.98
2019-06-26T17:31:50.519Z,36.91
2019-06-26T17:34:20.754Z,36.87
2019-06-26T17:36:51.340Z,36.80
2019-06-26T17:39:21.544Z,36.79
2019-06-26T17:41:51.882Z,36.78
2019-06-26T17:44:22.101Z,36.71
2019-06-26T17:46:52.843Z,36.77
2019-06-26T17:49:23.060Z,36.77
2019-06-26T17:51:53.269Z,36.69
2019-06-26T17:54:24.828Z,36.66
2019-06-26T17:56:55.517Z,36.51
2019-06-26T17:59:25.721Z,36.45
2019-06-26T18:01:56.102Z,36.35
2019-06-26T18:04:26.329Z,36.33
2019-06-26T18:06:57.174Z,36.37
2019-06-26T18:09:27.392Z,36.37
2019-06-26T18:11:57.614Z,36.17
2019-06-26T18:14:27.883Z,36.15
2019-06-26T18:16:58.575Z,36.14
2019-06-26T18:19:28.870Z,36.16
2019-06-26T18:21:59.083Z,36.15
2019-06-26T18:24:29.314Z,36.05
2019-06-26T18:26:59.609Z,35.89
2019-06-26T18:29:30.225Z,35.71
2019-06-26T18:32:00.496Z,35.81
2019-06-26T18:34:31.068Z,35.71
2019-06-26T18:37:01.377Z,35.74
2019-06-26T18:39:32.019Z,35.60
2019-06-26T18:42:02.266Z,35.55
2019-06-26T18:44:32.454Z,35.58
2019-06-26T18:47:02.666Z,35.46
2019-06-26T18:49:32.890Z,35.38
2019-06-26T18:52:03.552Z,35.40
2019-06-26T18:54:34.285Z,35.42
2019-06-26T18:57:04.532Z,35.36
2019-06-26T18:59:34.759Z,35.36
2019-06-26T19:02:07.621Z,35.31
2019-06-26T19:04:38.346Z,35.20
2019-06-26T19:07:08.677Z,35.18
2019-06-26T19:09:38.912Z,35.08
2019-06-26T19:12:09.191Z,34.99
2019-06-26T19:14:39.855Z,34.92
2019-06-26T19:17:11.427Z,34.79
2019-06-26T19:19:41.652Z,34.78
2019-06-26T19:22:11.887Z,34.73
2019-06-26T19:24:42.598Z,34.57
2019-06-26T19:27:12.807Z,34.48
2019-06-26T19:29:43.144Z,34.50
2019-06-26T19:32:13.373Z,34.48
2019-06-26T19:34:43.582Z,34.39
2019-06-26T19:37:14.233Z,34.42
2019-06-26T19:39:44.959Z,34.42
2019-06-26T19:42:15.702Z,34.24
2019-06-26T19:44:45.889Z,34.23
2019-06-26T19:47:16.462Z,34.13
2019-06-26T19:49:48.283Z,34.17
2019-06-26T19:52:19.776Z,34.18
2019-06-26T19:54:50.492Z,34.19
2019-06-26T19:57:20.697Z,34.13
2019-06-26T19:59:51.978Z,34.00
2019-06-26T20:02:22.279Z,33.93
2019-06-26T20:04:52.474Z,33.70
2019-06-26T20:07:23.269Z,33.80
2019-06-26T20:09:53.891Z,33.64
2019-06-26T20:12:24.099Z,33.65
2019-06-26T20:14:54.334Z,33.57
2019-06-26T20:17:24.532Z,33.42
2019-06-26T20:19:54.802Z,33.41
2019-06-26T20:22:25.433Z,33.41
2019-06-26T20:24:57.437Z,33.39
2019-06-26T20:27:27.782Z,33.41
2019-06-26T20:29:58.088Z,33.39
2019-06-26T20:32:29.441Z,33.20
2019-06-26T20:35:00.239Z,33.14
2019-06-26T20:37:30.514Z,33.11
2019-06-26T20:40:00.755Z,33.09
2019-06-26T20:42:31.026Z,32.99
2019-06-26T20:45:01.682Z,32.95
2019-06-26T20:47:32.087Z,32.96
2019-06-26T20:50:02.516Z,32.84
2019-06-26T20:52:32.890Z,32.78
2019-06-26T20:55:04.849Z,32.76
2019-06-26T20:57:35.056Z,32.70
2019-06-26T21:00:05.906Z,32.64
2019-06-26T21:02:37.916Z,32.66
2019-06-26T21:05:08.725Z,32.58
2019-06-26T21:07:38.931Z,32.58
2019-06-26T21:10:09.428Z,32.58
2019-06-26T21:12:39.636Z,32.57
2019-06-26T21:15:10.755Z,32.51
2019-06-26T21:17:41.513Z,32.41
2019-06-26T21:20:11.745Z,32.23
2019-06-26T21:22:41.963Z,32.20
2019-06-26T21:25:18.718Z,32.24
2019-06-26T21:27:47.979Z,32.30
2019-06-26T21:30:19.552Z,32.28
2019-06-26T21:32:49.817Z,32.22
2019-06-26T21:35:20.005Z,32.15
2019-06-26T21:37:50.292Z,32.21
2019-06-26T21:40:20.493Z,32.14
2019-06-26T21:42:51.141Z,32.18
2019-06-26T21:45:21.593Z,32.09
2019-06-26T21:47:51.768Z,31.99
2019-06-26T21:50:22.135Z,31.96
2019-06-26T21:52:52.899Z,31.92
2019-06-26T21:55:34.234Z,32.02
2019-06-26T21:58:15.202Z,32.00
2019-06-26T22:01:03.389Z,31.99
2019-06-26T22:03:51.655Z,31.89
2019-06-26T22:06:27.571Z,31.87
2019-06-26T22:08:59.396Z,31.78
2019-06-26T22:11:29.675Z,31.76
2019-06-26T22:14:00.496Z,31.76
2019-06-26T22:16:31.325Z,31.77
2019-06-26T22:19:01.548Z,31.80
2019-06-26T22:21:31.929Z,31.71
2019-06-26T22:24:02.607Z,31.69
2019-06-26T22:26:33.018Z,31.67
2019-06-26T22:29:03.215Z,31.61
2019-06-26T22:31:33.420Z,31.53
2019-06-26T22:34:04.984Z,31.49
2019-06-26T22:36:36.255Z,31.45
2019-06-26T22:39:07.296Z,31.46
2019-06-26T22:41:37.501Z,31.42
2019-06-26T22:44:08.145Z,31.42
2019-06-26T22:46:38.322Z,31.24
2019-06-26T22:49:08.495Z,31.25
2019-06-26T22:51:40.011Z,31.27
2019-06-26T22:54:10.668Z,31.21
2019-06-26T22:56:41.645Z,31.17
2019-06-26T22:59:11.841Z,31.17
2019-06-26T23:01:42.078Z,31.14
2019-06-26T23:04:12.698Z,31.10
2019-06-26T23:06:43.423Z,31.04
2019-06-26T23:09:13.600Z,31.04
2019-06-26T23:11:43.910Z,31.02
2019-06-26T23:14:14.605Z,30.98
2019-06-26T23:16:44.890Z,30.92
2019-06-26T23:19:15.165Z,30.91
2019-06-26T23:21:45.320Z,30.88
2019-06-26T23:24:16.035Z,30.82
2019-06-26T23:26:46.238Z,30.69
2019-06-26T23:29:16.404Z,30.73
2019-06-26T23:31:46.683Z,30.68
2019-06-26T23:34:17.313Z,30.65
2019-06-26T23:36:47.602Z,30.59
2019-06-26T23:39:17.781Z,30.56
2019-06-26T23:41:48.542Z,30.42
2019-06-26T23:44:19.213Z,30.47
2019-06-26T23:46:50.486Z,30.40
2019-06-26T23:49:20.693Z,30.41
2019-06-26T23:51:50.969Z,30.41
2019-06-26T23:54:21.598Z,30.42
2019-06-26T23:56:53.141Z,30.43
2019-06-26T23:59:24.294Z,30.40
